Time;durP1;ratioP1;P1;durP2;ratioP2;P2;SDS_P1;SDS_P2;PMS_P1;PMS_P2;Temp;Humidity;BMP_temperature;BMP_pressure;BME280_temperature;BME280_humidity;BME280_pressure;Samples;Min_cycle;Max_cycle;Signal;HPM_P1;HPM_P2
2022/05/19 00:01:13;;;;;;;15.93;9.77;;;;;;;18.93;100.00;100624.63;7400183;19;20388;-60
2022/05/19 00:03:42;;;;;;;10.73;7.13;;;;;;;18.88;100.00;100618.50;7372069;19;20406;-60
2022/05/19 00:06:15;;;;;;;10.80;7.23;;;;;;;18.86;100.00;100626.31;7398191;19;20419;-60
2022/05/19 00:08:45;;;;;;;10.00;7.33;;;;;;;18.83;100.00;100621.09;7369748;19;20403;-60
2022/05/19 00:11:17;;;;;;;12.23;7.23;;;;;;;18.80;100.00;100614.94;7399937;19;20402;-60
2022/05/19 00:13:46;;;;;;;10.30;6.53;;;;;;;18.74;100.00;100611.47;7368762;19;20417;-58
2022/05/19 00:16:16;;;;;;;11.17;7.30;;;;;;;18.71;100.00;100616.66;7398036;19;20949;-60
2022/05/19 00:18:45;;;;;;;12.30;7.23;;;;;;;18.70;100.00;100608.81;7366458;19;20520;-60
2022/05/19 00:21:17;;;;;;;7.53;6.40;;;;;;;18.63;100.00;100607.91;7402175;19;20749;-60
2022/05/19 00:23:47;;;;;;;11.97;7.80;;;;;;;18.60;100.00;100597.41;7395191;19;20981;-59
2022/05/19 00:26:16;;;;;;;9.90;7.00;;;;;;;18.61;100.00;100599.19;7397863;19;20438;-61
2022/05/19 00:28:46;;;;;;;12.17;7.00;;;;;;;18.57;100.00;100597.41;7388890;19;20415;-59
2022/05/19 00:31:17;;;;;;;10.40;7.13;;;;;;;18.56;100.00;100595.69;7403296;19;20726;-61
2022/05/19 00:33:46;;;;;;;11.97;8.00;;;;;;;18.55;100.00;100596.53;7392977;19;20983;-59
2022/05/19 00:36:20;;;;;;;10.50;6.90;;;;;;;18.52;100.00;100588.69;7401470;19;20423;-59
2022/05/19 00:38:50;;;;;;;11.47;7.60;;;;;;;18.51;100.00;100587.78;7388484;19;20463;-60
2022/05/19 00:41:20;;;;;;;13.27;7.43;;;;;;;18.46;100.00;100584.31;7399770;19;20391;-59
2022/05/19 00:43:59;;;;;;;10.73;7.40;;;;;;;18.46;100.00;100584.31;7367071;19;20429;-59
2022/05/19 00:46:32;;;;;;;11.80;6.70;;;;;;;18.42;100.00;100578.19;7395799;19;20493;-60
2022/05/19 00:49:06;;;;;;;11.00;7.80;;;;;;;18.39;100.00;100582.47;7367737;19;20419;-60
2022/05/19 00:51:42;;;;;;;11.07;8.30;;;;;;;18.36;100.00;100572.91;7398453;19;20396;-60
2022/05/19 00:54:15;;;;;;;14.00;8.03;;;;;;;18.37;100.00;100569.44;7368019;19;20415;-57
2022/05/19 00:56:48;;;;;;;11.80;9.23;;;;;;;18.30;100.00;100578.09;7396376;19;20411;-57
2022/05/19 00:59:23;;;;;;;9.43;7.27;;;;;;;18.25;100.00;100571.97;7367392;19;20438;-59
2022/05/19 01:01:55;;;;;;;8.70;7.20;;;;;;;18.18;100.00;100564.09;7398206;19;20379;-58
2022/05/19 01:04:29;;;;;;;11.07;7.83;;;;;;;18.18;100.00;100557.97;7365695;19;20966;-59
2022/05/19 01:07:04;;;;;;;12.30;7.63;;;;;;;18.16;100.00;100560.56;7395890;19;20417;-60
2022/05/19 01:09:35;;;;;;;11.57;7.43;;;;;;;18.15;100.00;100558.84;7366448;19;20418;-61
2022/05/19 01:12:07;;;;;;;10.80;7.67;;;;;;;18.13;100.00;100559.69;7398277;19;20383;-59
2022/05/19 01:14:37;;;;;;;9.13;7.57;;;;;;;18.08;100.00;100557.03;7366310;19;20411;-59
2022/05/19 01:17:08;;;;;;;9.57;7.20;;;;;;;18.07;100.00;100552.69;7395493;19;20839;-60
2022/05/19 01:19:40;;;;;;;9.23;6.70;;;;;;;18.07;100.00;100555.31;7365189;19;20435;-59
2022/05/19 01:22:19;;;;;;;10.67;7.60;;;;;;;18.04;100.00;100550.00;7397812;19;20387;-59
2022/05/19 01:24:55;;;;;;;8.37;7.53;;;;;;;18.00;100.00;100551.72;7366533;19;20424;-57
2022/05/19 01:27:27;;;;;;;9.40;7.57;;;;;;;17.99;100.00;100547.38;7397268;19;20763;-60
2022/05/19 01:29:59;;;;;;;11.37;7.70;;;;;;;17.94;100.00;100539.50;7392604;19;20435;-60
2022/05/19 01:32:31;;;;;;;8.33;6.67;;;;;;;17.89;100.00;100545.56;7392432;19;20407;-62
2022/05/19 01:35:01;;;;;;;13.90;7.70;;;;;;;17.86;100.00;100538.59;7395826;19;20413;-62
2022/05/19 01:37:31;;;;;;;13.00;7.90;;;;;;;17.85;100.00;100541.19;7396922;19;20400;-62
2022/05/19 01:40:06;;;;;;;9.67;7.60;;;;;;;17.85;100.00;100533.34;7395470;19;20463;-63
2022/05/19 01:42:49;;;;;;;11.37;8.37;;;;;;;17.83;100.00;100532.47;7381268;19;20906;-63
2022/05/19 01:45:33;;;;;;;11.80;8.00;;;;;;;17.82;100.00;100526.38;7395830;19;20411;-62
2022/05/19 01:48:06;;;;;;;12.90;7.70;;;;;;;17.87;100.00;100526.41;7365901;19;20407;-62
2022/05/19 01:50:38;;;;;;;10.83;7.30;;;;;;;17.86;100.00;100527.25;7396510;19;20395;-63
2022/05/19 01:53:12;;;;;;;11.60;8.30;;;;;;;17.79;100.00;100521.13;7365080;19;20407;-62
2022/05/19 01:55:47;;;;;;;14.23;8.10;;;;;;;17.74;100.00;100525.44;7398219;19;20443;-63
2022/05/19 01:58:23;;;;;;;9.20;7.40;;;;;;;17.73;100.00;100523.69;7363383;19;20405;-62
2022/05/19 02:00:56;;;;;;;9.57;7.53;;;;;;;17.68;100.00;100516.69;7394858;19;20390;-61
2022/05/19 02:03:30;;;;;;;13.50;8.63;;;;;;;17.67;100.00;100522.78;7365397;19;20381;-61
2022/05/19 02:06:04;;;;;;;11.07;7.93;;;;;;;17.67;100.00;100520.16;7394129;19;20432;-58
2022/05/19 02:08:38;;;;;;;12.13;8.57;;;;;;;17.66;100.00;100517.53;7366203;19;20407;-60
2022/05/19 02:11:13;;;;;;;14.30;8.47;;;;;;;17.66;100.00;100517.53;7395651;19;20398;-57
2022/05/19 02:13:45;;;;;;;13.10;8.20;;;;;;;17.62;100.00;100519.25;7364677;19;20452;-60
2022/05/19 02:16:17;;;;;;;13.23;8.20;;;;;;;17.59;100.00;100511.38;7394239;19;20406;-59
2022/05/19 02:18:47;;;;;;;12.77;7.53;;;;;;;17.56;100.00;100516.59;7388272;19;20399;-58
2022/05/19 02:21:19;;;;;;;10.30;8.30;;;;;;;17.54;100.00;100506.13;7393926;19;20407;-59
2022/05/19 02:23:48;;;;;;;9.67;7.53;;;;;;;17.50;100.00;100501.78;7364238;19;20413;-58
2022/05/19 02:26:18;;;;;;;11.50;8.60;;;;;;;17.48;100.00;100494.78;7394450;19;20427;-61
2022/05/19 02:28:53;;;;;;;11.60;8.10;;;;;;;17.48;100.00;100486.97;7387176;19;20943;-60
2022/05/19 02:31:22;;;;;;;10.37;7.90;;;;;;;17.49;100.00;100484.34;7395317;19;20481;-61
2022/05/19 02:33:52;;;;;;;14.10;9.93;;;;;;;17.46;100.00;100483.44;7363507;19;20434;-57
2022/05/19 02:36:22;;;;;;;10.90;8.70;;;;;;;17.45;100.00;100476.50;7394221;19;20501;-60
2022/05/19 02:38:51;;;;;;;9.87;8.50;;;;;;;17.40;100.00;100474.69;7364508;19;20940;-58
2022/05/19 02:41:21;;;;;;;10.40;8.73;;;;;;;17.37;100.00;100469.47;7393494;19;20390;-58
2022/05/19 02:43:53;;;;;;;14.20;8.60;;;;;;;17.34;100.00;100469.44;7361997;19;20494;-58
2022/05/19 02:46:22;;;;;;;14.37;9.33;;;;;;;17.32;100.00;100463.34;7397527;19;20761;-59
2022/05/19 02:48:52;;;;;;;15.97;10.30;;;;;;;17.26;100.00;100453.75;7363018;19;20430;-57
2022/05/19 02:51:21;;;;;;;17.63;12.00;;;;;;;17.23;100.00;100455.44;7394885;19;20462;-57
2022/05/19 02:53:51;;;;;;;11.00;9.20;;;;;;;17.21;100.00;100450.22;7362159;19;20427;-60
2022/05/19 02:56:20;;;;;;;15.00;9.00;;;;;;;17.20;100.00;100444.97;7393611;19;20421;-59
2022/05/19 02:58:53;;;;;;;15.73;9.60;;;;;;;17.16;100.00;100432.78;7363847;19;20415;-60
2022/05/19 03:01:22;;;;;;;14.20;9.40;;;;;;;17.16;100.00;100435.41;7393253;19;20770;-59
2022/05/19 03:03:52;;;;;;;12.67;8.57;;;;;;;17.11;100.00;100428.41;7362125;19;20810;-58
2022/05/19 03:06:22;;;;;;;14.07;8.97;;;;;;;17.07;100.00;100417.94;7392885;19;20426;-59
2022/05/19 03:08:51;;;;;;;15.10;9.70;;;;;;;17.08;100.00;100417.94;7387855;19;20422;-58
2022/05/19 03:11:21;;;;;;;14.10;9.17;;;;;;;17.07;100.00;100413.59;7394173;19;20385;-60
2022/05/19 03:13:53;;;;;;;18.97;12.80;;;;;;;17.05;100.00;100415.31;7361855;19;20417;-61
2022/05/19 03:16:22;;;;;;;11.43;8.70;;;;;;;17.05;100.00;100407.50;7392979;19;20417;-58
2022/05/19 03:18:52;;;;;;;15.93;9.27;;;;;;;17.00;100.00;100406.53;7365987;19;20476;-61
2022/05/19 03:21:21;;;;;;;12.27;9.20;;;;;;;17.01;100.00;100403.06;7392219;19;20449;-55
2022/05/19 03:23:54;;;;;;;13.27;9.70;;;;;;;16.99;100.00;100395.22;7387644;19;20834;-57
2022/05/19 03:26:24;;;;;;;10.93;9.23;;;;;;;16.99;100.00;100397.84;7392611;19;20440;-60
2022/05/19 03:28:56;;;;;;;15.83;8.83;;;;;;;16.95;100.00;100403.91;7385871;19;20417;-60
2022/05/19 03:31:25;;;;;;;12.47;9.80;;;;;;;16.96;100.00;100394.31;7393556;19;20398;-60
2022/05/19 03:33:55;;;;;;;11.13;8.50;;;;;;;16.97;100.00;100390.88;7375981;19;20409;-60
2022/05/19 03:36:24;;;;;;;15.83;9.20;;;;;;;16.96;100.00;100387.41;7392197;19;20427;-59
2022/05/19 03:38:55;;;;;;;11.10;9.87;;;;;;;16.93;100.00;100394.31;7388258;19;20972;-60
2022/05/19 03:41:25;;;;;;;10.20;8.40;;;;;;;16.91;100.00;100389.06;7391924;19;20393;-61
2022/05/19 03:43:57;;;;;;;14.33;8.80;;;;;;;16.90;100.00;100381.25;7361848;19;20438;-58
2022/05/19 03:46:26;;;;;;;13.67;9.97;;;;;;;16.92;100.00;100377.78;7392208;19;20417;-60
2022/05/19 03:48:56;;;;;;;12.00;9.03;;;;;;;16.92;100.00;100375.19;7365049;19;20387;-59
2022/05/19 03:51:27;;;;;;;16.67;9.77;;;;;;;16.87;100.00;100367.34;7392521;19;20744;-59
2022/05/19 03:53:57;;;;;;;11.10;9.07;;;;;;;16.85;100.00;100371.66;7385051;19;20413;-60
2022/05/19 03:56:26;;;;;;;13.60;8.60;;;;;;;16.84;100.00;100367.31;7391429;19;20408;-60
2022/05/19 03:58:58;;;;;;;11.57;9.70;;;;;;;16.81;100.00;100359.47;7385536;19;20429;-59
2022/05/19 04:01:29;;;;;;;11.43;9.53;;;;;;;16.80;100.00;100357.72;7391315;19;20382;-61
2022/05/19 04:03:59;;;;;;;12.83;9.40;;;;;;;16.81;100.00;100349.03;7358173;19;20825;-58
2022/05/19 04:06:29;;;;;;;15.10;9.03;;;;;;;16.79;100.00;100340.34;7390205;19;20436;-60
2022/05/19 04:08:58;;;;;;;15.83;9.63;;;;;;;16.82;100.00;100347.31;7363209;19;20409;-60
2022/05/19 04:11:28;;;;;;;12.20;9.37;;;;;;;16.83;100.00;100341.25;7392385;19;20394;-58
2022/05/19 04:14:00;;;;;;;13.90;9.67;;;;;;;16.82;100.00;100337.75;7362741;19;20421;-58
2022/05/19 04:16:30;;;;;;;12.13;9.00;;;;;;;16.80;100.00;100342.09;7390392;19;20445;-58
2022/05/19 04:18:59;;;;;;;14.10;9.60;;;;;;;16.78;100.00;100341.22;7385243;19;20779;-57
2022/05/19 04:21:29;;;;;;;14.90;10.30;;;;;;;16.84;100.00;100343.88;7392619;19;20385;-60
2022/05/19 04:23:59;;;;;;;16.43;10.80;;;;;;;16.84;100.00;100345.59;7366253;19;20414;-58
2022/05/19 04:26:29;;;;;;;14.13;9.30;;;;;;;16.82;100.00;100344.72;7397883;19;20438;-57
2022/05/19 04:29:01;;;;;;;10.97;8.83;;;;;;;16.83;100.00;100344.72;7370771;19;20440;-57
2022/05/19 04:31:31;;;;;;;12.80;9.57;;;;;;;16.86;100.00;100346.47;7399199;19;20383;-59
2022/05/19 04:34:01;;;;;;;12.63;9.40;;;;;;;16.86;100.00;100351.69;7391168;19;20415;-58
2022/05/19 04:36:30;;;;;;;16.00;9.90;;;;;;;16.88;100.00;100339.56;7397195;19;20410;-57
2022/05/19 04:38:59;;;;;;;18.87;10.47;;;;;;;16.86;100.00;100349.97;7385836;19;20413;-58
2022/05/19 04:41:29;;;;;;;12.70;9.30;;;;;;;16.89;100.00;100351.72;7397697;19;20743;-57
2022/05/19 04:44:01;;;;;;;12.80;9.53;;;;;;;16.92;100.00;100356.94;7366486;19;20393;-52
2022/05/19 04:46:30;;;;;;;10.80;8.80;;;;;;;16.96;100.00;100368.28;7396412;19;20417;-58
2022/05/19 04:49:00;;;;;;;13.23;9.10;;;;;;;16.99;100.00;100366.56;7391261;19;20420;-59
2022/05/19 04:51:29;;;;;;;13.07;9.90;;;;;;;17.02;100.00;100368.38;7398556;19;20416;-58
2022/05/19 04:53:59;;;;;;;14.50;9.10;;;;;;;17.07;100.00;100377.09;7370620;19;20970;-59
2022/05/19 04:56:30;;;;;;;16.00;9.50;;;;;;;17.11;100.00;100378.88;7396553;19;20444;-59
2022/05/19 04:59:03;;;;;;;15.80;9.63;;;;;;;17.20;100.00;100392.84;7391610;19;20428;-54
2022/05/19 05:01:32;;;;;;;16.00;8.60;;;;;;;17.24;100.00;100400.69;7397083;19;20463;-56
2022/05/19 05:04:02;;;;;;;11.93;9.17;;;;;;;17.29;100.00;100405.97;7389949;19;20410;-60
2022/05/19 05:06:32;;;;;;;13.07;9.73;;;;;;;17.36;100.00;100410.38;7395975;19;20429;-60
2022/05/19 05:09:01;;;;;;;14.80;9.47;;;;;;;17.38;100.00;100411.25;7389440;19;20418;-59
2022/05/19 05:11:31;;;;;;;14.10;9.37;;;;;;;17.43;100.00;100413.88;7397806;19;20404;-60
2022/05/19 05:14:03;;;;;;;16.20;12.07;;;;;;;17.48;100.00;100412.19;7364620;19;20759;-60
2022/05/19 05:16:32;;;;;;;20.37;9.57;;;;;;;17.53;100.00;100423.53;7395976;19;20435;-60
2022/05/19 05:19:02;;;;;;;15.23;9.27;;;;;;;17.60;100.00;100423.59;7362614;19;20489;-60
2022/05/19 05:21:31;;;;;;;11.63;9.10;;;;;;;17.65;100.00;100421.88;7398371;19;20390;-58
2022/05/19 05:24:00;;;;;;;17.87;9.40;;;;;;;17.71;100.00;100426.25;7368504;19;20470;-59
2022/05/19 05:26:30;;;;;;;14.33;10.10;;;;;;;17.75;100.00;100428.03;7395307;19;20479;-60
2022/05/19 05:29:02;;;;;;;12.60;9.70;;;;;;;17.81;100.00;100438.53;7387741;19;20459;-59
2022/05/19 05:31:32;;;;;;;14.40;9.27;;;;;;;17.85;100.00;100444.63;7397315;19;20375;-60
2022/05/19 05:34:01;;;;;;;11.80;9.00;;;;;;;17.90;100.00;100446.41;7373796;19;20411;-59
2022/05/19 05:36:31;;;;;;;14.37;9.30;;;;;;;17.93;100.00;100451.66;7395161;19;20414;-58
2022/05/19 05:39:00;;;;;;;10.13;8.27;;;;;;;18.00;100.00;100459.53;7364041;19;20420;-55
2022/05/19 05:41:30;;;;;;;11.33;8.63;;;;;;;18.04;100.00;100458.66;7396117;19;20924;-57
2022/05/19 05:44:02;;;;;;;17.33;9.40;;;;;;;18.11;100.00;100463.09;7366741;19;20391;-60
2022/05/19 05:46:32;;;;;;;11.93;8.93;;;;;;;18.18;100.00;100475.31;7394367;19;20407;-59
2022/05/19 05:49:01;;;;;;;15.10;8.33;;;;;;;18.27;100.00;100481.44;7389280;19;20962;-58
2022/05/19 05:51:31;;;;;;;13.37;9.30;;;;;;;18.36;100.00;100489.34;7399392;19;20381;-58
2022/05/19 05:54:00;;;;;;;19.00;10.73;;;;;;;18.45;100.00;100494.59;7385535;19;20444;-59
2022/05/19 05:56:30;;;;;;;18.67;11.60;;;;;;;18.51;100.00;100509.44;7392770;19;20438;-59
2022/05/19 05:58:59;;;;;;;13.47;9.40;;;;;;;18.63;100.00;100519.09;7384532;19;20455;-60
2022/05/19 06:01:32;;;;;;;14.03;9.47;;;;;;;18.70;100.00;100515.63;7397449;19;20394;-60
2022/05/19 06:04:02;;;;;;;16.50;10.77;;;;;;;18.78;100.00;100523.50;7360970;19;20395;-59
2022/05/19 06:06:32;;;;;;;16.60;9.80;;;;;;;18.83;100.00;100531.34;7397209;19;20419;-59
2022/05/19 06:09:01;;;;;;;12.13;8.70;;;;;;;18.93;100.00;100545.34;7389281;19;20418;-59
2022/05/19 06:11:32;;;;;;;20.67;12.27;;;;;;;19.02;100.00;100546.25;7397250;19;20392;-59
2022/05/19 06:14:01;;;;;;;16.20;10.83;;;;;;;19.10;100.00;100553.25;7364998;19;20427;-61
2022/05/19 06:16:33;;;;;;;12.37;8.20;;;;;;;19.21;100.00;100564.63;7393701;19;20407;-59
2022/05/19 06:19:03;;;;;;;23.93;13.23;;;;;;;19.26;100.00;100589.06;7363359;19;20427;-59
2022/05/19 06:21:36;;;;;;;38.57;15.50;;;;;;;19.31;100.00;100578.59;7394691;19;20396;-59
2022/05/19 06:24:08;;;;;;;12.57;8.07;;;;;;;19.37;100.00;100575.13;7362410;19;20418;-60
2022/05/19 06:26:38;;;;;;;16.00;7.77;;;;;;;19.42;100.00;100596.94;7393432;19;20432;-60
2022/05/19 06:29:08;;;;;;;11.63;7.33;;;;;;;19.48;100.00;100602.19;7382269;19;20403;-59
2022/05/19 06:31:40;;;;;;;13.27;8.50;;;;;;;19.52;100.00;100617.03;7397748;19;20396;-59
2022/05/19 06:34:10;;;;;;;12.57;7.53;;;;;;;19.61;100.00;100617.91;7365738;19;20426;-60
2022/05/19 06:36:45;;;;;;;15.63;8.93;;;;;;;19.69;100.00;100637.13;7393333;19;20438;-59
2022/05/19 06:39:16;;;;;;;17.00;7.93;;;;;;;19.75;100.00;100641.50;7381333;19;20761;-60
2022/05/19 06:44:28;;;;;;;18.47;7.90;;;;;;;19.94;100.00;100651.13;7359749;19;20972;-61
2022/05/19 06:47:00;;;;;;;16.87;9.07;;;;;;;20.03;100.00;100658.16;7392870;19;20419;-57
2022/05/19 06:49:31;;;;;;;65.17;23.57;;;;;;;20.16;100.00;100661.66;7363582;19;20435;-59
2022/05/19 06:52:01;;;;;;;16.90;9.70;;;;;;;20.28;100.00;100671.25;7394453;19;20388;-59
2022/05/19 06:54:31;;;;;;;41.57;16.73;;;;;;;20.41;100.00;100705.31;7378753;19;20415;-58
2022/05/19 06:57:01;;;;;;;11.73;7.37;;;;;;;20.51;100.00;100697.44;7392596;19;20976;-60
2022/05/19 06:59:31;;;;;;;14.00;8.70;;;;;;;20.66;100.00;100702.69;7362319;19;20422;-61
2022/05/19 07:02:03;;;;;;;17.10;8.57;;;;;;;20.75;100.00;100707.91;7394128;19;20388;-60
2022/05/19 07:04:32;;;;;;;15.60;8.20;;;;;;;20.80;100.00;100742.84;7361553;19;20446;-59
2022/05/19 07:07:02;;;;;;;11.20;7.20;;;;;;;20.95;100.00;100765.59;7391846;19;20415;-59
2022/05/19 07:09:31;;;;;;;11.23;6.70;;;;;;;21.04;100.00;100790.94;7387249;19;20415;-57
2022/05/19 07:12:01;;;;;;;11.43;7.13;;;;;;;21.11;100.00;100792.66;7394073;19;20388;-59
2022/05/19 07:14:31;;;;;;;13.87;6.47;;;;;;;21.21;100.00;100827.63;7385330;19;20494;-57
2022/05/19 07:17:03;;;;;;;10.40;6.90;;;;;;;21.34;100.00;100828.50;7391705;19;20400;-60
2022/05/19 07:22:23;;;;;;;13.80;5.97;;;;;;;21.56;100.00;100866.06;7397927;19;20396;-60
2022/05/19 07:24:53;;;;;;;9.70;6.60;;;;;;;21.67;100.00;100879.16;7359831;19;20992;-59
2022/05/19 07:27:22;;;;;;;11.40;7.07;;;;;;;21.78;100.00;100887.03;7393626;19;20392;-59
2022/05/19 07:29:52;;;;;;;18.73;6.97;;;;;;;21.91;100.00;100902.75;7386301;19;20430;-60
2022/05/19 07:32:24;;;;;;;18.70;8.67;;;;;;;22.02;100.00;100907.94;7393588;19;20384;-59
2022/05/19 07:34:56;;;;;;;28.27;11.80;;;;;;;22.10;100.00;100914.06;7378221;19;20801;-58
2022/05/19 07:37:25;;;;;;;14.73;7.97;;;;;;;22.20;100.00;100928.91;7393379;19;20384;-60
2022/05/19 07:39:55;;;;;;;11.97;7.37;;;;;;;22.39;100.00;100947.22;7360725;19;20418;-59
2022/05/19 07:42:25;;;;;;;15.90;8.40;;;;;;;22.57;100.00;100934.91;7392853;19;20392;-60
2022/05/19 07:44:55;;;;;;;16.33;7.57;;;;;;;22.78;100.00;100965.47;7358760;19;20391;-57
2022/05/19 07:47:29;;;;;;;26.00;11.47;;;;;;;22.85;100.00;100982.06;7392758;19;20416;-60
2022/05/19 07:49:58;;;;;;;22.60;9.47;;;;;;;22.73;100.00;100988.28;7362147;19;20952;-60
2022/05/19 07:52:35;;;;;;;22.67;10.80;;;;;;;22.66;100.00;100983.06;7382210;19;20743;-60
2022/05/19 07:55:06;;;;;;;16.87;8.80;;;;;;;22.68;100.00;100990.94;7391260;19;20426;-57
2022/05/19 07:57:35;;;;;;;21.23;9.23;;;;;;;22.66;100.00;100985.69;7398027;19;20387;-57
2022/05/19 08:00:06;;;;;;;29.10;12.20;;;;;;;22.64;100.00;100995.34;7391225;19;20427;-59
2022/05/19 08:02:39;;;;;;;23.73;9.60;;;;;;;22.77;100.00;100987.41;7399554;19;20383;-58
2022/05/19 08:05:09;;;;;;;21.70;9.20;;;;;;;22.84;100.00;100997.00;7375770;19;20467;-60
2022/05/19 08:07:38;;;;;;;23.00;10.30;;;;;;;22.87;100.00;101002.22;7399717;19;20460;-57
2022/05/19 08:10:26;;;;;;;20.47;10.13;;;;;;;22.97;100.00;101002.19;7391665;19;20952;-58
2022/05/19 08:15:40;;;;;;;32.47;11.50;;;;;;;23.22;100.00;101049.38;7391278;19;20422;-60
2022/05/19 08:18:14;;;;;;;14.03;5.77;;;;;;;23.33;100.00;101042.34;7399800;19;20708;-55
2022/05/19 08:20:46;;;;;;;16.57;7.23;;;;;;;23.49;100.00;101048.38;7392711;19;20410;-58
2022/05/19 08:23:19;;;;;;;23.73;10.43;;;;;;;23.77;100.00;101053.38;7398136;19;20394;-59
2022/05/19 08:25:49;;;;;;;24.80;10.23;;;;;;;23.93;100.00;101092.78;7389474;19;20938;-60
2022/05/19 08:28:19;;;;;;;17.33;8.30;;;;;;;24.00;100.00;101202.50;7399353;19;20387;-56
2022/05/19 08:30:51;;;;;;;32.87;13.00;;;;;;;24.06;100.00;101228.81;7394154;19;20449;-59
2022/05/19 08:33:23;;;;;;;19.27;7.83;;;;;;;24.27;100.00;101248.88;7398978;19;20376;-57
2022/05/19 08:35:53;;;;;;;11.77;4.70;;;;;;;24.35;100.00;101251.44;7391154;19;20457;-59
2022/05/19 08:38:23;;;;;;;10.93;4.80;;;;;;;24.54;100.00;101251.28;7399262;19;20513;-60
2022/05/19 08:40:55;;;;;;;13.10;6.03;;;;;;;24.73;100.00;101256.41;7390957;19;20421;-59
2022/05/19 08:43:27;;;;;;;20.53;6.37;;;;;;;24.77;100.00;101247.59;7397950;19;20375;-58
2022/05/19 08:46:02;;;;;;;20.43;8.80;;;;;;;24.94;100.00;101255.34;7396731;19;20407;-55
2022/05/19 08:48:37;;;;;;;15.57;6.53;;;;;;;24.99;100.00;101248.25;7380684;19;20946;-60
2022/05/19 08:51:10;;;;;;;18.70;8.43;;;;;;;25.08;100.00;101247.28;7398233;19;20387;-59
2022/05/19 08:53:42;;;;;;;17.70;7.47;;;;;;;24.84;100.00;101257.22;7377138;19;20383;-59
2022/05/19 08:56:17;;;;;;;10.80;5.80;;;;;;;24.79;100.00;101259.88;7396629;19;20938;-58
2022/05/19 08:58:54;;;;;;;11.87;5.70;;;;;;;24.90;100.00;101251.88;7367660;19;20387;-59
2022/05/19 09:01:27;;;;;;;12.80;5.90;;;;;;;25.18;100.00;101248.06;7398198;19;20397;-59
2022/05/19 09:04:12;;;;;;;18.90;8.23;;;;;;;24.93;100.00;101238.63;7367797;19;20433;-61
2022/05/19 09:09:43;;;;;;;14.00;6.50;;;;;;;24.91;100.00;101245.69;7362950;19;20427;-60
2022/05/19 09:12:15;;;;;;;10.80;6.07;;;;;;;25.10;100.00;101242.84;7397995;19;20922;-59
2022/05/19 09:14:44;;;;;;;7.83;4.10;;;;;;;25.01;100.00;101249.09;7382634;19;20422;-57
2022/05/19 09:17:15;;;;;;;8.23;5.10;;;;;;;25.11;100.00;101249.03;7396592;19;20397;-59
2022/05/19 09:19:49;;;;;;;6.27;4.03;;;;;;;25.28;100.00;101236.47;7364872;19;20780;-59
2022/05/19 09:22:21;;;;;;;9.40;3.90;;;;;;;25.45;100.00;101238.03;7397591;19;20387;-58
2022/05/19 09:24:52;;;;;;;6.70;4.27;;;;;;;25.61;100.00;101223.78;7388350;19;20419;-60
2022/05/19 09:27:23;;;;;;;10.03;3.73;;;;;;;25.66;100.00;101223.72;7399731;19;20435;-57
2022/05/19 09:29:55;;;;;;;6.60;4.27;;;;;;;25.81;100.00;101217.34;7362887;19;20424;-58
2022/05/19 09:32:27;;;;;;;9.60;4.10;;;;;;;25.95;100.00;101216.25;7396774;19;20408;-61
2022/05/19 09:35:06;;;;;;;5.07;3.23;;;;;;;25.77;100.00;101235.91;7364124;19;20956;-59
2022/05/19 09:37:48;;;;;;;8.40;3.67;;;;;;;25.74;100.00;101232.38;7396712;19;20404;-56
2022/05/19 09:40:23;;;;;;;9.50;3.63;;;;;;;25.88;100.00;101236.59;7361518;19;20402;-59
2022/05/19 09:43:17;;;;;;;8.63;3.60;;;;;;;25.92;100.00;101234.78;7396326;19;20378;-57
2022/05/19 09:45:49;;;;;;;6.87;3.13;;;;;;;26.20;100.00;101234.38;7383934;19;20433;-61
2022/05/19 09:48:27;;;;;;;7.80;3.70;;;;;;;26.36;100.00;101235.88;7396721;19;20415;-60
2022/05/19 09:51:10;;;;;;;7.70;3.77;;;;;;;26.36;100.00;101237.66;7395631;19;20474;-57
2022/05/19 09:53:43;;;;;;;6.67;3.60;;;;;;;25.94;100.00;101233.00;7371247;19;20387;-59
2022/05/19 09:56:16;;;;;;;7.40;4.33;;;;;;;26.01;100.00;101227.59;7399414;19;20419;-58
2022/05/19 09:58:48;;;;;;;6.97;3.70;;;;;;;26.10;100.00;101223.91;7386495;19;20416;-61
2022/05/19 10:01:21;;;;;;;7.53;4.37;;;;;;;26.28;100.00;101235.13;7396475;19;20390;-60
2022/05/19 10:03:58;;;;;;;9.70;3.77;;;;;;;26.22;100.00;101225.53;7387007;19;20475;-59
2022/05/19 10:06:39;;;;;;;6.77;3.50;;;;;;;26.22;100.00;101233.47;7397805;19;20956;-57
2022/05/19 10:09:13;;;;;;;6.30;3.80;;;;;;;25.99;100.00;101224.09;7384250;19;20780;-57
2022/05/19 10:11:51;;;;;;;7.83;4.20;;;;;;;26.16;100.00;101228.25;7395636;19;20395;-60
2022/05/19 10:14:22;;;;;;;9.70;3.50;;;;;;;26.12;100.00;101234.47;7387241;19;20487;-55
2022/05/19 10:17:04;;;;;;;7.63;3.70;;;;;;;26.19;100.00;101222.91;7393745;19;20407;-59
2022/05/19 10:19:40;;;;;;;6.27;3.70;;;;;;;25.98;100.00;101225.00;7384204;19;20774;-59
2022/05/19 10:22:28;;;;;;;10.37;4.07;;;;;;;26.12;100.00;101226.56;7395309;19;20383;-59
2022/05/19 10:25:08;;;;;;;6.60;4.10;;;;;;;25.95;100.00;101226.81;7362910;19;20797;-60
2022/05/19 10:33:28;;;;;;;6.70;4.10;;;;;;;25.79;100.00;101223.53;7395241;19;20732;-58
2022/05/19 10:36:10;;;;;;;9.13;4.63;;;;;;;25.74;100.00;101211.25;7393348;19;20945;-58
2022/05/19 10:38:47;;;;;;;8.10;3.47;;;;;;;25.85;100.00;101210.22;7366565;19;20386;-55
2022/05/19 10:41:28;;;;;;;7.17;3.60;;;;;;;25.73;100.00;101204.22;7394571;19;20383;-59
2022/05/19 10:44:32;;;;;;;7.33;3.87;;;;;;;25.52;100.00;101207.16;7364668;19;20419;-60
2022/05/19 10:47:07;;;;;;;6.37;4.37;;;;;;;25.48;100.00;101188.69;7391967;19;20438;-56
2022/05/19 10:50:07;;;;;;;9.23;3.80;;;;;;;25.79;100.00;101191.81;7364639;19;20427;-55
2022/05/19 10:52:50;;;;;;;6.40;3.37;;;;;;;25.67;100.00;101192.88;7394317;19;20415;-57
2022/05/19 10:55:26;;;;;;;6.30;4.17;;;;;;;25.66;100.00;101194.66;7380850;19;20435;-60
2022/05/19 10:58:08;;;;;;;13.23;5.80;;;;;;;25.58;100.00;101183.34;7396562;19;20407;-60
2022/05/19 11:00:47;;;;;;;18.03;8.67;;;;;;;25.56;100.00;101179.81;7384686;19;20553;-57
2022/05/19 11:03:45;;;;;;;5.73;3.50;;;;;;;25.73;100.00;101177.81;7395716;19;20407;-60
2022/05/19 11:06:28;;;;;;;7.47;4.63;;;;;;;25.88;100.00;101183.75;7392065;19;20773;-57
2022/05/19 11:09:03;;;;;;;12.03;7.00;;;;;;;25.91;100.00;101183.72;7363071;19;20430;-60
2022/05/19 11:11:47;;;;;;;22.97;12.23;;;;;;;26.20;100.00;101171.78;7394871;19;20395;-60
2022/05/19 11:14:24;;;;;;;8.73;4.60;;;;;;;26.48;100.00;101170.44;7386075;19;20975;-54
2022/05/19 11:16:59;;;;;;;20.53;8.80;;;;;;;26.21;100.00;101170.91;7391982;19;20775;-60
2022/05/19 11:19:32;;;;;;;23.13;10.80;;;;;;;26.36;100.00;101160.97;7364515;19;20414;-60
2022/05/19 11:22:06;;;;;;;15.80;8.37;;;;;;;26.25;100.00;101164.66;7393659;19;20383;-55
2022/05/19 11:26:23;;;;;;;9.17;5.43;;;;;;;26.58;100.00;101161.44;7386725;19;20434;-54
2022/05/19 11:27:30;;;;;;;21.10;12.17;;;;;;;26.53;100.00;101164.19;7393164;19;20396;-55
2022/05/19 11:30:03;;;;;;;11.00;5.53;;;;;;;27.00;100.00;101159.75;7363692;19;20419;-60
2022/05/19 11:32:36;;;;;;;14.40;8.50;;;;;;;26.76;100.00;101157.56;7401126;19;20393;-54
2022/05/19 11:35:09;;;;;;;19.87;8.10;;;;;;;26.55;100.00;101159.72;7366948;19;20462;-56
2022/05/19 11:37:41;;;;;;;17.97;8.97;;;;;;;26.56;100.00;101158.81;7400503;19;20379;-58
2022/05/19 11:40:18;;;;;;;6.17;3.63;;;;;;;26.95;100.00;101146.63;7369427;19;20953;-58
2022/05/19 11:42:56;;;;;;;18.70;7.07;;;;;;;26.94;100.00;101134.31;7400997;19;20907;-58
2022/05/19 11:45:32;;;;;;;18.10;8.20;;;;;;;26.86;100.00;101134.41;7368716;19;20435;-59
2022/05/19 11:56:21;;;;;;;8.57;4.20;;;;;;;27.23;100.00;101116.94;7398615;19;20453;-58
2022/05/19 11:58:55;;;;;;;9.63;5.23;;;;;;;27.18;100.00;101121.44;7370261;19;20407;-61